Aviation Digital Data Service (ADDS)

Output produced by METARs form (2146 UTC 24 March 2019)
found at http://www.aviationweather.gov/metar/data/
 
WBSB 242130Z 17001KT 9999 FEW014 BKN140 26/24 Q1010 NOSIG
TAF WBSB 241700Z 2418/2600 20003KT 9999 SCT015 FEW016CB 
     TEMPO 2419/2422 7000 SHRA TSRA 
     BECMG 2503/2505 33010KT SCT016 FEW017CB